createdAt,value
2018-06-03T00:01:42.697Z,18.25
2018-06-03T00:04:11.527Z,18.23
2018-06-03T00:06:40.312Z,18.17
2018-06-03T00:09:09.090Z,18.13
2018-06-03T00:11:38.094Z,18.10
2018-06-03T00:14:06.883Z,18.13
2018-06-03T00:16:35.672Z,18.11
2018-06-03T00:19:04.498Z,18.12
2018-06-03T00:21:49.470Z,18.12
2018-06-03T00:24:18.271Z,18.14
2018-06-03T00:26:47.485Z,18.13
2018-06-03T00:29:16.276Z,18.06
2018-06-03T00:31:45.132Z,18.00
2018-06-03T00:34:13.954Z,18.03
2018-06-03T00:36:46.770Z,18.06
2018-06-03T00:39:15.625Z,18.08
2018-06-03T00:41:44.444Z,18.11
2018-06-03T00:44:13.258Z,18.09
2018-06-03T00:46:42.067Z,18.14
2018-06-03T00:49:10.970Z,18.15
2018-06-03T00:51:39.821Z,18.08
2018-06-03T00:54:08.625Z,18.02
2018-06-03T00:56:48.505Z,17.99
2018-06-03T00:59:17.366Z,17.98
2018-06-03T01:01:46.250Z,17.99
2018-06-03T01:04:15.062Z,17.97
2018-06-03T01:06:43.826Z,17.96
2018-06-03T01:09:12.690Z,17.94
2018-06-03T01:11:41.475Z,17.94
2018-06-03T01:14:11.043Z,17.91
2018-06-03T01:16:39.893Z,17.92
2018-06-03T01:19:08.690Z,17.84
2018-06-03T01:21:37.474Z,17.85
2018-06-03T01:24:06.263Z,17.89
2018-06-03T01:26:35.106Z,17.88
2018-06-03T01:29:03.886Z,17.90
2018-06-03T01:31:32.722Z,17.88
2018-06-03T01:34:01.533Z,17.83
2018-06-03T01:36:30.411Z,17.84
2018-06-03T01:38:59.193Z,17.77
2018-06-03T01:41:28.002Z,17.76
2018-06-03T01:43:56.795Z,17.69
2018-06-03T01:46:25.590Z,17.71
2018-06-03T01:48:54.378Z,17.64
2018-06-03T01:51:23.187Z,17.63
2018-06-03T01:53:52.014Z,17.59
2018-06-03T01:56:20.819Z,17.58
2018-06-03T01:58:49.600Z,17.57
2018-06-03T02:01:18.394Z,17.56
2018-06-03T02:03:47.149Z,17.56
2018-06-03T02:06:15.939Z,17.53
2018-06-03T02:08:44.784Z,17.51
2018-06-03T02:11:13.604Z,17.53
2018-06-03T02:13:42.373Z,17.54
2018-06-03T02:16:11.205Z,17.46
2018-06-03T02:18:39.960Z,17.43
2018-06-03T02:21:08.767Z,17.39
2018-06-03T02:23:37.538Z,17.32
2018-06-03T02:26:06.326Z,17.27
2018-06-03T02:28:35.139Z,17.24
2018-06-03T02:31:03.944Z,17.25
2018-06-03T02:33:32.754Z,17.18
2018-06-03T02:36:01.558Z,17.19
2018-06-03T02:38:30.530Z,17.18
2018-06-03T02:40:59.344Z,17.16
2018-06-03T02:43:28.125Z,17.15
2018-06-03T02:45:56.919Z,17.16
2018-06-03T02:48:25.771Z,17.14
2018-06-03T02:50:54.654Z,17.08
2018-06-03T02:53:23.846Z,17.12
2018-06-03T02:55:52.741Z,17.13
2018-06-03T02:58:21.565Z,17.03
2018-06-03T03:00:50.384Z,17.02
2018-06-03T03:03:19.151Z,17.10
2018-06-03T03:05:47.979Z,17.14
2018-06-03T03:08:16.831Z,17.23
2018-06-03T03:10:45.645Z,17.23
2018-06-03T03:13:14.454Z,17.20
2018-06-03T03:15:43.282Z,17.19
2018-06-03T03:18:12.143Z,17.25
2018-06-03T03:20:40.975Z,17.27
2018-06-03T03:23:09.811Z,17.25
2018-06-03T03:25:38.591Z,17.33
2018-06-03T03:28:07.390Z,17.39
2018-06-03T03:30:36.613Z,17.44
2018-06-03T03:33:05.650Z,17.47
2018-06-03T03:35:34.466Z,17.55
2018-06-03T03:38:03.326Z,17.55
2018-06-03T03:40:38.692Z,17.50
2018-06-03T03:43:07.529Z,17.60
2018-06-03T03:45:36.336Z,17.69
2018-06-03T03:48:05.186Z,17.71
2018-06-03T03:50:34.045Z,17.74
2018-06-03T03:53:02.817Z,17.78
2018-06-03T03:55:31.628Z,17.84
2018-06-03T03:58:00.448Z,17.85
2018-06-03T04:00:29.289Z,17.90
2018-06-03T04:02:58.120Z,18.02
2018-06-03T04:05:26.976Z,18.18
2018-06-03T04:07:55.773Z,18.30
2018-06-03T04:10:24.575Z,18.34
2018-06-03T04:12:53.397Z,18.31
2018-06-03T04:15:22.274Z,18.34
2018-06-03T04:17:51.121Z,18.41
2018-06-03T04:20:20.104Z,18.50
2018-06-03T04:22:48.882Z,18.61
2018-06-03T04:25:17.695Z,18.62
2018-06-03T04:27:46.474Z,18.78
2018-06-03T04:30:15.294Z,18.87
2018-06-03T04:32:44.075Z,18.95
2018-06-03T04:35:12.890Z,19.07
2018-06-03T04:37:41.664Z,19.16
2018-06-03T04:40:10.474Z,19.27
2018-06-03T04:42:39.426Z,19.34
2018-06-03T04:45:08.193Z,19.54
2018-06-03T04:47:36.986Z,19.86
2018-06-03T04:50:05.978Z,20.41
2018-06-03T04:52:34.847Z,21.25
2018-06-03T04:55:03.600Z,22.05
2018-06-03T04:57:32.590Z,22.50
2018-06-03T05:00:01.347Z,23.08
2018-06-03T05:02:30.127Z,23.49
2018-06-03T05:04:59.065Z,23.83
2018-06-03T05:07:27.900Z,24.14
2018-06-03T05:09:56.748Z,24.35
2018-06-03T05:12:25.548Z,24.43
2018-06-03T05:14:54.436Z,24.71
2018-06-03T05:17:23.351Z,24.70
2018-06-03T05:19:52.244Z,24.67
2018-06-03T05:22:21.067Z,25.00
2018-06-03T05:24:49.893Z,24.98
2018-06-03T05:27:18.662Z,24.89
2018-06-03T05:29:47.462Z,25.00
2018-06-03T05:32:16.262Z,25.13
2018-06-03T05:34:45.152Z,25.11
2018-06-03T05:37:13.985Z,25.27
2018-06-03T05:39:42.824Z,25.21
2018-06-03T05:42:11.671Z,25.17
2018-06-03T05:44:40.586Z,25.27
2018-06-03T05:47:09.446Z,25.28
2018-06-03T05:49:38.228Z,25.07
2018-06-03T05:52:07.142Z,24.99
2018-06-03T05:54:35.949Z,24.88
2018-06-03T05:57:04.751Z,24.74
2018-06-03T05:59:33.583Z,24.30
2018-06-03T06:02:02.434Z,24.03
2018-06-03T06:04:31.267Z,23.74
2018-06-03T06:07:00.122Z,23.73
2018-06-03T06:09:28.940Z,23.63
2018-06-03T06:11:57.720Z,23.64
2018-06-03T06:14:26.525Z,23.63
2018-06-03T06:16:55.370Z,23.48
2018-06-03T06:19:24.178Z,23.50
2018-06-03T06:21:53.003Z,23.54
2018-06-03T06:24:21.802Z,23.47
2018-06-03T06:26:57.080Z,23.45
2018-06-03T06:29:25.896Z,23.47
2018-06-03T06:31:55.024Z,23.39
2018-06-03T06:34:23.912Z,23.34
2018-06-03T06:36:52.715Z,23.40
2018-06-03T06:39:21.586Z,23.50
2018-06-03T06:41:50.687Z,23.38
2018-06-03T06:44:19.545Z,23.22
2018-06-03T06:46:48.368Z,23.19
2018-06-03T06:49:17.328Z,23.10
2018-06-03T06:51:46.159Z,23.13
2018-06-03T06:54:14.927Z,23.18
2018-06-03T06:56:43.731Z,23.19
2018-06-03T06:59:12.526Z,23.10
2018-06-03T07:01:41.340Z,23.15
2018-06-03T07:04:10.118Z,23.19
2018-06-03T07:06:38.988Z,23.15
2018-06-03T07:09:08.157Z,23.32
2018-06-03T07:11:37.029Z,23.36
2018-06-03T07:14:05.835Z,23.40
2018-06-03T07:16:34.727Z,23.34
2018-06-03T07:19:03.567Z,23.45
2018-06-03T07:21:32.363Z,23.52
2018-06-03T07:24:01.157Z,23.59
2018-06-03T07:26:29.892Z,23.58
2018-06-03T07:28:58.682Z,23.61
2018-06-03T07:31:27.468Z,23.67
2018-06-03T07:33:56.299Z,23.78
2018-06-03T07:36:25.089Z,23.88
2018-06-03T07:38:54.063Z,23.86
2018-06-03T07:41:22.897Z,23.89
2018-06-03T07:43:51.720Z,23.85
2018-06-03T07:46:20.846Z,23.91
2018-06-03T07:48:49.632Z,23.92
2018-06-03T07:51:18.465Z,23.93
2018-06-03T07:53:47.355Z,23.86
2018-06-03T07:56:16.217Z,23.85
2018-06-03T07:58:45.041Z,23.92
2018-06-03T08:01:13.796Z,23.97
2018-06-03T08:03:42.563Z,24.05
2018-06-03T08:06:11.346Z,24.04
2018-06-03T08:08:40.187Z,24.10
2018-06-03T08:11:09.016Z,24.23
2018-06-03T08:13:37.886Z,24.39
2018-06-03T08:16:06.709Z,24.48
2018-06-03T08:18:35.469Z,24.45
2018-06-03T08:21:04.299Z,24.50
2018-06-03T08:23:33.128Z,24.57
2018-06-03T08:26:01.908Z,24.58
2018-06-03T08:28:30.706Z,24.65
2018-06-03T08:30:59.827Z,24.61
2018-06-03T08:33:28.613Z,24.64
2018-06-03T08:35:57.441Z,24.71
2018-06-03T08:38:26.412Z,24.81
2018-06-03T08:40:55.192Z,24.83
2018-06-03T08:43:23.969Z,24.93
2018-06-03T08:45:52.739Z,24.87
2018-06-03T08:48:21.481Z,24.83
2018-06-03T08:50:51.063Z,24.83
2018-06-03T08:53:19.890Z,24.96
2018-06-03T08:55:48.669Z,25.12
2018-06-03T08:58:17.516Z,25.19
2018-06-03T09:00:46.312Z,25.26
2018-06-03T09:03:15.105Z,25.29
2018-06-03T09:05:44.249Z,25.33
2018-06-03T09:08:13.066Z,25.32
2018-06-03T09:10:41.848Z,25.37
2018-06-03T09:13:10.750Z,25.53
2018-06-03T09:15:39.667Z,25.67
2018-06-03T09:18:08.508Z,25.87
2018-06-03T09:20:37.299Z,25.85
2018-06-03T09:23:06.544Z,25.86
2018-06-03T09:25:35.335Z,25.81
2018-06-03T09:28:04.133Z,25.83
2018-06-03T09:30:32.949Z,25.86
2018-06-03T09:33:01.738Z,25.96
2018-06-03T09:35:30.575Z,26.02
2018-06-03T09:37:59.414Z,26.05
2018-06-03T09:40:28.245Z,26.13
2018-06-03T09:42:57.080Z,26.28
2018-06-03T09:45:26.204Z,26.36
2018-06-03T09:47:55.001Z,26.17
2018-06-03T09:50:23.866Z,26.18
2018-06-03T09:52:52.727Z,26.19
2018-06-03T09:55:21.555Z,25.99
2018-06-03T09:57:50.321Z,26.02
2018-06-03T10:00:24.021Z,26.18
2018-06-03T10:02:53.072Z,26.25
2018-06-03T10:05:21.838Z,26.16
2018-06-03T10:07:50.655Z,26.31
2018-06-03T10:10:19.491Z,26.35
2018-06-03T10:12:48.412Z,26.44
2018-06-03T10:15:17.219Z,26.45
2018-06-03T10:17:46.028Z,26.58
2018-06-03T10:20:14.891Z,26.72
2018-06-03T10:22:43.765Z,26.87
2018-06-03T10:25:12.586Z,27.07
2018-06-03T10:27:41.412Z,27.36
2018-06-03T10:30:10.175Z,27.35
2018-06-03T10:32:38.994Z,27.43
2018-06-03T10:35:07.746Z,27.55
2018-06-03T10:37:36.562Z,27.79
2018-06-03T10:40:05.390Z,28.01
2018-06-03T10:42:34.265Z,28.09
2018-06-03T10:45:03.096Z,28.42
2018-06-03T10:47:31.890Z,28.44
2018-06-03T10:50:00.610Z,28.16
2018-06-03T10:52:29.392Z,28.27
2018-06-03T10:54:58.671Z,28.15
2018-06-03T10:57:27.514Z,26.95
2018-06-03T10:59:56.544Z,26.24
2018-06-03T11:02:27.275Z,25.84
2018-06-03T11:04:56.425Z,25.62
2018-06-03T11:07:31.391Z,25.34
2018-06-03T11:10:00.208Z,25.22
2018-06-03T11:12:29.000Z,24.95
2018-06-03T11:14:57.746Z,24.68
2018-06-03T11:17:26.559Z,24.47
2018-06-03T11:19:55.331Z,24.33
2018-06-03T11:22:32.112Z,24.28
2018-06-03T11:25:00.933Z,23.84
2018-06-03T11:27:31.503Z,23.65
2018-06-03T11:30:00.423Z,23.60
2018-06-03T11:32:30.156Z,23.49
2018-06-03T11:34:59.171Z,23.64
2018-06-03T11:37:42.671Z,23.76
2018-06-03T11:40:11.525Z,23.98
2018-06-03T11:42:40.477Z,24.13
2018-06-03T11:45:09.211Z,24.11
2018-06-03T11:47:38.072Z,24.19
2018-06-03T11:50:06.929Z,24.11
2018-06-03T11:52:35.794Z,23.88
2018-06-03T11:55:05.751Z,23.84
2018-06-03T11:57:56.750Z,23.96
2018-06-03T12:00:25.611Z,24.07
2018-06-03T12:02:54.440Z,24.09
2018-06-03T12:05:23.192Z,24.13
2018-06-03T12:07:52.035Z,24.25
2018-06-03T12:10:20.801Z,24.48
2018-06-03T12:12:49.724Z,24.70
2018-06-03T12:15:18.475Z,24.96
2018-06-03T12:17:47.338Z,25.30
2018-06-03T12:20:16.176Z,25.59
2018-06-03T12:22:45.028Z,25.84
2018-06-03T12:25:13.857Z,26.12
2018-06-03T12:27:42.628Z,26.39
2018-06-03T12:30:11.500Z,26.70
2018-06-03T12:32:40.309Z,27.10
2018-06-03T12:35:09.042Z,27.44
2018-06-03T12:37:37.991Z,27.39
2018-06-03T12:40:06.748Z,27.51
2018-06-03T12:42:35.538Z,27.75
2018-06-03T12:45:04.315Z,27.74
2018-06-03T12:47:35.892Z,27.61
2018-06-03T12:50:04.814Z,26.86
2018-06-03T12:52:33.620Z,26.16
2018-06-03T12:55:02.495Z,26.06
2018-06-03T12:57:31.309Z,26.12
2018-06-03T13:00:00.564Z,25.73
2018-06-03T13:02:29.357Z,25.33
2018-06-03T13:04:58.229Z,25.70
2018-06-03T13:07:27.047Z,25.70
2018-06-03T13:09:55.973Z,25.95
2018-06-03T13:12:25.575Z,25.85
2018-06-03T13:14:54.441Z,25.79
2018-06-03T13:17:23.314Z,25.93
2018-06-03T13:19:52.261Z,26.24
2018-06-03T13:22:21.151Z,26.44
2018-06-03T13:24:49.924Z,26.69
2018-06-03T13:27:19.403Z,27.02
2018-06-03T13:29:48.331Z,27.14
2018-06-03T13:32:17.111Z,27.08
2018-06-03T13:34:45.891Z,26.75
2018-06-03T13:37:14.673Z,26.38
2018-06-03T13:39:43.499Z,26.42
2018-06-03T13:42:12.266Z,26.18
2018-06-03T13:44:41.989Z,25.98
2018-06-03T13:47:10.851Z,25.79
2018-06-03T13:49:39.652Z,25.46
2018-06-03T13:52:08.463Z,25.20
2018-06-03T13:54:37.246Z,24.83
2018-06-03T13:57:06.787Z,24.60
2018-06-03T13:59:35.605Z,24.39
2018-06-03T14:02:04.436Z,24.36
2018-06-03T14:04:33.211Z,24.06
2018-06-03T14:07:02.035Z,23.79
2018-06-03T14:09:30.807Z,23.57
2018-06-03T14:11:59.619Z,23.30
2018-06-03T14:14:28.396Z,23.21
2018-06-03T14:16:57.216Z,23.15
2018-06-03T14:19:26.287Z,22.95
2018-06-03T14:21:55.283Z,22.84
2018-06-03T14:24:24.035Z,22.73
2018-06-03T14:26:52.913Z,22.59
2018-06-03T14:29:28.162Z,22.52
2018-06-03T14:31:56.935Z,22.54
2018-06-03T14:34:25.875Z,22.54
2018-06-03T14:36:54.675Z,22.58
2018-06-03T14:39:23.522Z,22.62
2018-06-03T14:41:52.308Z,22.77
2018-06-03T14:44:21.086Z,22.83
2018-06-03T14:46:50.573Z,22.89
2018-06-03T14:49:19.389Z,22.97
2018-06-03T14:51:48.143Z,23.14
2018-06-03T14:54:16.929Z,23.33
2018-06-03T14:56:45.684Z,23.52
2018-06-03T14:59:16.307Z,23.76
2018-06-03T15:01:45.097Z,23.88
2018-06-03T15:04:13.931Z,23.82
2018-06-03T15:06:42.759Z,23.87
2018-06-03T15:09:11.961Z,23.99
2018-06-03T15:11:40.791Z,23.92
2018-06-03T15:14:09.602Z,23.88
2018-06-03T15:16:38.464Z,24.04
2018-06-03T15:19:08.235Z,23.95
2018-06-03T15:21:37.044Z,23.91
2018-06-03T15:24:06.076Z,24.07
2018-06-03T15:26:34.878Z,24.23
2018-06-03T15:29:03.653Z,24.30
2018-06-03T15:31:32.503Z,24.32
2018-06-03T15:34:01.267Z,24.35
2018-06-03T15:36:30.237Z,24.15
2018-06-03T15:38:59.116Z,24.06
2018-06-03T15:41:28.005Z,24.17
2018-06-03T15:43:56.896Z,24.14
2018-06-03T15:46:26.570Z,24.34
2018-06-03T15:48:55.456Z,24.48
2018-06-03T15:51:24.222Z,24.34
2018-06-03T15:53:53.007Z,24.22
2018-06-03T15:56:21.804Z,24.17
2018-06-03T15:58:50.664Z,24.18
2018-06-03T16:01:19.436Z,24.11
2018-06-03T16:03:49.287Z,24.19
2018-06-03T16:06:18.085Z,24.13
2018-06-03T16:08:46.852Z,24.18
2018-06-03T16:11:15.733Z,24.28
2018-06-03T16:13:44.567Z,24.41
2018-06-03T16:16:13.392Z,24.38
2018-06-03T16:18:42.382Z,24.35
2018-06-03T16:21:11.167Z,24.23
2018-06-03T16:23:40.083Z,24.13
2018-06-03T16:26:08.935Z,24.09
2018-06-03T16:28:37.943Z,24.09
2018-06-03T16:31:06.816Z,24.13
2018-06-03T16:33:35.608Z,24.08
2018-06-03T16:36:04.404Z,23.99
2018-06-03T16:38:38.057Z,23.93
2018-06-03T16:41:07.381Z,23.83
2018-06-03T16:43:36.859Z,23.70
2018-06-03T16:46:06.039Z,23.62
2018-06-03T16:48:34.906Z,23.60
2018-06-03T16:51:03.863Z,23.57
2018-06-03T16:53:32.712Z,23.60
2018-06-03T16:56:01.561Z,23.60
2018-06-03T16:58:30.875Z,23.54
2018-06-03T17:00:59.707Z,23.49
2018-06-03T17:03:28.535Z,23.43
2018-06-03T17:06:00.105Z,23.40
2018-06-03T17:08:29.119Z,23.36
2018-06-03T17:10:57.986Z,23.37
2018-06-03T17:13:26.756Z,23.35
2018-06-03T17:15:55.538Z,23.33
2018-06-03T17:18:25.078Z,23.29
2018-06-03T17:20:54.734Z,23.27
2018-06-03T17:23:23.685Z,23.22
2018-06-03T17:25:52.477Z,23.22
2018-06-03T17:28:21.259Z,23.18
2018-06-03T17:30:50.159Z,23.18
2018-06-03T17:33:18.911Z,23.16
2018-06-03T17:35:47.703Z,23.14
2018-06-03T17:38:17.109Z,23.15
2018-06-03T17:40:47.645Z,23.10
2018-06-03T17:43:16.464Z,23.09
2018-06-03T17:45:45.224Z,23.06
2018-06-03T17:48:13.964Z,23.03
2018-06-03T17:50:42.767Z,23.01
2018-06-03T17:53:11.998Z,22.93
2018-06-03T17:55:40.808Z,22.91
2018-06-03T17:58:09.744Z,22.91
2018-06-03T18:00:38.555Z,22.90
2018-06-03T18:03:07.392Z,22.84
2018-06-03T18:05:36.190Z,22.77
2018-06-03T18:08:05.020Z,22.77
2018-06-03T18:10:33.813Z,22.77
2018-06-03T18:13:03.466Z,22.79
2018-06-03T18:15:32.304Z,22.79
2018-06-03T18:18:01.108Z,22.83
2018-06-03T18:20:30.269Z,22.84
2018-06-03T18:23:00.957Z,22.84
2018-06-03T18:25:29.743Z,22.85
2018-06-03T18:28:04.631Z,22.86
2018-06-03T18:30:33.347Z,22.82
2018-06-03T18:33:02.333Z,22.80
2018-06-03T18:35:31.227Z,22.80
2018-06-03T18:37:59.987Z,22.80
2018-06-03T18:40:28.833Z,22.77
2018-06-03T18:42:57.582Z,22.72
2018-06-03T18:45:26.413Z,22.67
2018-06-03T18:47:55.269Z,22.66
2018-06-03T18:50:24.014Z,22.60
2018-06-03T18:52:52.821Z,22.59
2018-06-03T18:55:21.597Z,22.57
2018-06-03T18:57:50.387Z,22.56
2018-06-03T19:00:19.180Z,22.53
2018-06-03T19:02:48.074Z,22.53
2018-06-03T19:05:16.807Z,22.47
2018-06-03T19:10:23.106Z,22.40
2018-06-03T19:12:51.936Z,22.31
2018-06-03T19:15:20.746Z,22.25
2018-06-03T19:17:49.579Z,22.12
2018-06-03T19:20:18.335Z,22.11
2018-06-03T19:22:47.527Z,22.03
2018-06-03T19:25:16.447Z,21.90
2018-06-03T19:27:45.258Z,21.82
2018-06-03T19:30:16.952Z,21.81
2018-06-03T19:32:45.715Z,21.80
2018-06-03T19:35:14.644Z,21.78
2018-06-03T19:37:43.479Z,21.72
2018-06-03T19:40:12.268Z,21.68
2018-06-03T19:42:40.999Z,21.69
2018-06-03T19:45:10.208Z,21.66
2018-06-03T19:47:39.017Z,21.60
2018-06-03T19:50:07.800Z,21.53
2018-06-03T19:52:36.528Z,21.52
2018-06-03T19:55:08.331Z,21.47
2018-06-03T19:57:37.139Z,21.44
2018-06-03T20:00:08.933Z,21.44
2018-06-03T20:02:41.357Z,21.43
2018-06-03T20:05:10.421Z,21.43
2018-06-03T20:07:40.945Z,21.36
2018-06-03T20:10:12.948Z,21.36
2018-06-03T20:12:41.990Z,21.33
2018-06-03T20:15:10.867Z,21.34
2018-06-03T20:17:39.714Z,21.32
2018-06-03T20:20:09.005Z,21.30
2018-06-03T20:22:39.374Z,21.31
2018-06-03T20:25:08.418Z,21.20
2018-06-03T20:27:37.422Z,21.17
2018-06-03T20:30:07.534Z,21.16
2018-06-03T20:32:36.376Z,21.17
2018-06-03T20:35:05.194Z,21.17
2018-06-03T20:37:33.976Z,21.14
2018-06-03T20:40:02.780Z,21.12
2018-06-03T20:42:31.626Z,21.13
2018-06-03T20:45:00.627Z,21.09
2018-06-03T20:47:29.391Z,21.06
2018-06-03T20:49:58.148Z,21.02
2018-06-03T20:52:26.973Z,20.95
2018-06-03T20:54:55.743Z,20.92
2018-06-03T20:57:24.560Z,20.88
2018-06-03T20:59:53.494Z,20.84
2018-06-03T21:02:22.230Z,20.79
2018-06-03T21:04:51.201Z,20.80
2018-06-03T21:07:19.970Z,20.74
2018-06-03T21:09:48.815Z,20.68
2018-06-03T21:12:18.440Z,20.65
2018-06-03T21:14:47.208Z,20.66
2018-06-03T21:17:16.179Z,20.68
2018-06-03T21:19:44.921Z,20.65
2018-06-03T21:22:14.388Z,20.59
2018-06-03T21:24:43.167Z,20.59
2018-06-03T21:27:11.934Z,20.55
2018-06-03T21:29:40.714Z,20.53
2018-06-03T21:32:09.474Z,20.51
2018-06-03T21:34:38.287Z,20.44
2018-06-03T21:37:07.110Z,20.39
2018-06-03T21:39:35.869Z,20.33
2018-06-03T21:42:04.699Z,20.34
2018-06-03T21:44:33.473Z,20.34
2018-06-03T21:47:02.263Z,20.32
2018-06-03T21:49:31.000Z,20.34
2018-06-03T21:52:00.102Z,20.36
2018-06-03T21:54:28.863Z,20.38
2018-06-03T21:56:57.643Z,20.41
2018-06-03T21:59:26.674Z,20.39
2018-06-03T22:01:55.456Z,20.36
2018-06-03T22:04:24.182Z,20.34
2018-06-03T22:06:52.923Z,20.28
2018-06-03T22:09:21.666Z,20.23
2018-06-03T22:11:50.458Z,20.25
2018-06-03T22:14:19.230Z,20.27
2018-06-03T22:16:48.055Z,20.24
2018-06-03T22:19:16.835Z,20.25
2018-06-03T22:21:45.599Z,20.25
2018-06-03T22:24:14.354Z,20.25
2018-06-03T22:26:43.119Z,20.27
2018-06-03T22:29:11.853Z,20.24
2018-06-03T22:31:40.616Z,20.27
2018-06-03T22:34:09.384Z,20.26
2018-06-03T22:36:38.090Z,20.20
2018-06-03T22:39:09.189Z,20.15
2018-06-03T22:41:37.933Z,20.11
2018-06-03T22:44:06.682Z,20.10
2018-06-03T22:46:35.453Z,20.10
2018-06-03T22:49:04.212Z,20.04
2018-06-03T22:51:32.940Z,20.10
2018-06-03T22:54:01.787Z,20.09
2018-06-03T22:56:41.521Z,20.06
2018-06-03T22:59:10.269Z,20.00
2018-06-03T23:01:39.020Z,20.00
2018-06-03T23:04:07.796Z,20.01
2018-06-03T23:06:36.586Z,20.01
2018-06-03T23:09:06.704Z,20.01
2018-06-03T23:11:35.628Z,19.98
2018-06-03T23:14:04.466Z,19.97
2018-06-03T23:16:33.183Z,19.99
2018-06-03T23:19:02.043Z,19.96
2018-06-03T23:21:31.074Z,19.95
2018-06-03T23:24:00.296Z,19.91
2018-06-03T23:26:29.051Z,19.95
2018-06-03T23:28:57.824Z,19.91
2018-06-03T23:31:26.559Z,19.90
2018-06-03T23:33:55.311Z,19.93
2018-06-03T23:36:24.255Z,19.91
2018-06-03T23:38:53.055Z,19.91
2018-06-03T23:41:21.980Z,19.92
2018-06-03T23:43:50.838Z,19.92
2018-06-03T23:46:19.573Z,19.93
2018-06-03T23:48:48.567Z,19.92
2018-06-03T23:51:17.330Z,19.97
2018-06-03T23:53:46.130Z,19.96
2018-06-03T23:56:14.882Z,19.93
2018-06-03T23:58:43.605Z,19.91
